sensor_id;sensor_type;location;lat;lon;timestamp;P1;durP1;ratioP1;P2;durP2;ratioP2
34144;SDS011;69555;53.014;8.886;2024-02-16T00:02:19;15.65;;;6.47;;
34144;SDS011;69555;53.014;8.886;2024-02-16T00:04:45;12.00;;;5.85;;
34144;SDS011;69555;53.014;8.886;2024-02-16T00:07:10;9.73;;;6.05;;
34144;SDS011;69555;53.014;8.886;2024-02-16T00:09:36;10.60;;;6.45;;
34144;SDS011;69555;53.014;8.886;2024-02-16T00:12:01;13.07;;;6.20;;
34144;SDS011;69555;53.014;8.886;2024-02-16T00:14:26;16.55;;;5.82;;
34144;SDS011;69555;53.014;8.886;2024-02-16T00:16:52;11.63;;;5.95;;
34144;SDS011;69555;53.014;8.886;2024-02-16T00:19:17;11.02;;;6.47;;
34144;SDS011;69555;53.014;8.886;2024-02-16T00:21:43;12.52;;;6.07;;
34144;SDS011;69555;53.014;8.886;2024-02-16T00:24:08;10.55;;;6.25;;
34144;SDS011;69555;53.014;8.886;2024-02-16T00:26:34;16.83;;;7.63;;
34144;SDS011;69555;53.014;8.886;2024-02-16T00:29:01;14.05;;;5.25;;
34144;SDS011;69555;53.014;8.886;2024-02-16T00:31:27;10.40;;;5.43;;
34144;SDS011;69555;53.014;8.886;2024-02-16T00:33:52;12.73;;;5.60;;
34144;SDS011;69555;53.014;8.886;2024-02-16T00:36:17;8.95;;;5.47;;
34144;SDS011;69555;53.014;8.886;2024-02-16T00:38:43;9.80;;;5.60;;
34144;SDS011;69555;53.014;8.886;2024-02-16T00:41:08;14.23;;;5.43;;
34144;SDS011;69555;53.014;8.886;2024-02-16T00:43:42;13.30;;;5.07;;
34144;SDS011;69555;53.014;8.886;2024-02-16T00:46:09;9.52;;;5.35;;
34144;SDS011;69555;53.014;8.886;2024-02-16T00:48:35;9.50;;;5.47;;
34144;SDS011;69555;53.014;8.886;2024-02-16T00:51:00;12.23;;;5.30;;
34144;SDS011;69555;53.014;8.886;2024-02-16T00:53:26;14.15;;;5.85;;
34144;SDS011;69555;53.014;8.886;2024-02-16T00:55:51;14.13;;;5.32;;
34144;SDS011;69555;53.014;8.886;2024-02-16T00:58:16;15.55;;;5.20;;
34144;SDS011;69555;53.014;8.886;2024-02-16T01:00:42;11.77;;;4.85;;
34144;SDS011;69555;53.014;8.886;2024-02-16T01:03:08;13.35;;;4.78;;
34144;SDS011;69555;53.014;8.886;2024-02-16T01:05:34;11.25;;;5.25;;
34144;SDS011;69555;53.014;8.886;2024-02-16T01:08:00;8.20;;;4.50;;
34144;SDS011;69555;53.014;8.886;2024-02-16T01:10:26;12.13;;;4.90;;
34144;SDS011;69555;53.014;8.886;2024-02-16T01:12:51;13.27;;;5.43;;
34144;SDS011;69555;53.014;8.886;2024-02-16T01:15:17;9.60;;;4.10;;
34144;SDS011;69555;53.014;8.886;2024-02-16T01:17:43;12.32;;;4.50;;
34144;SDS011;69555;53.014;8.886;2024-02-16T01:20:08;8.10;;;4.65;;
34144;SDS011;69555;53.014;8.886;2024-02-16T01:22:35;9.82;;;5.28;;
34144;SDS011;69555;53.014;8.886;2024-02-16T01:25:01;8.75;;;4.47;;
34144;SDS011;69555;53.014;8.886;2024-02-16T01:27:26;7.07;;;4.47;;
34144;SDS011;69555;53.014;8.886;2024-02-16T01:29:52;12.07;;;3.83;;
34144;SDS011;69555;53.014;8.886;2024-02-16T01:32:17;9.70;;;4.78;;
34144;SDS011;69555;53.014;8.886;2024-02-16T01:34:43;6.25;;;4.20;;
34144;SDS011;69555;53.014;8.886;2024-02-16T01:37:11;8.18;;;4.63;;
34144;SDS011;69555;53.014;8.886;2024-02-16T01:39:37;13.70;;;4.35;;
34144;SDS011;69555;53.014;8.886;2024-02-16T01:42:02;10.60;;;3.88;;
34144;SDS011;69555;53.014;8.886;2024-02-16T01:44:28;6.10;;;4.05;;
34144;SDS011;69555;53.014;8.886;2024-02-16T01:46:53;11.07;;;4.35;;
34144;SDS011;69555;53.014;8.886;2024-02-16T01:49:18;11.75;;;4.15;;
34144;SDS011;69555;53.014;8.886;2024-02-16T01:51:44;7.43;;;4.80;;
34144;SDS011;69555;53.014;8.886;2024-02-16T01:54:11;10.85;;;4.50;;
34144;SDS011;69555;53.014;8.886;2024-02-16T01:56:37;10.50;;;5.15;;
34144;SDS011;69555;53.014;8.886;2024-02-16T01:59:02;11.00;;;4.15;;
34144;SDS011;69555;53.014;8.886;2024-02-16T02:01:29;6.22;;;3.70;;
34144;SDS011;69555;53.014;8.886;2024-02-16T02:03:54;6.00;;;3.97;;
34144;SDS011;69555;53.014;8.886;2024-02-16T02:06:20;7.82;;;4.40;;
34144;SDS011;69555;53.014;8.886;2024-02-16T02:08:46;9.20;;;3.58;;
34144;SDS011;69555;53.014;8.886;2024-02-16T02:11:11;9.25;;;3.80;;
34144;SDS011;69555;53.014;8.886;2024-02-16T02:13:37;9.52;;;4.20;;
34144;SDS011;69555;53.014;8.886;2024-02-16T02:16:03;10.30;;;4.28;;
34144;SDS011;69555;53.014;8.886;2024-02-16T02:18:31;7.70;;;3.63;;
34144;SDS011;69555;53.014;8.886;2024-02-16T02:20:56;5.18;;;3.70;;
34144;SDS011;69555;53.014;8.886;2024-02-16T02:23:21;8.60;;;3.92;;
34144;SDS011;69555;53.014;8.886;2024-02-16T02:25:47;7.78;;;4.20;;
34144;SDS011;69555;53.014;8.886;2024-02-16T02:28:14;8.55;;;4.10;;
34144;SDS011;69555;53.014;8.886;2024-02-16T02:30:40;7.10;;;3.65;;
34144;SDS011;69555;53.014;8.886;2024-02-16T02:33:06;9.80;;;3.30;;
34144;SDS011;69555;53.014;8.886;2024-02-16T02:35:32;4.20;;;3.47;;
34144;SDS011;69555;53.014;8.886;2024-02-16T02:37:57;8.30;;;4.10;;
34144;SDS011;69555;53.014;8.886;2024-02-16T02:40:23;5.25;;;3.13;;
34144;SDS011;69555;53.014;8.886;2024-02-16T02:42:48;12.15;;;4.50;;
34144;SDS011;69555;53.014;8.886;2024-02-16T02:45:13;7.40;;;3.58;;
34144;SDS011;69555;53.014;8.886;2024-02-16T02:47:39;7.22;;;3.35;;
34144;SDS011;69555;53.014;8.886;2024-02-16T02:50:04;5.45;;;3.05;;
34144;SDS011;69555;53.014;8.886;2024-02-16T02:52:30;5.93;;;3.45;;
34144;SDS011;69555;53.014;8.886;2024-02-16T02:54:56;8.30;;;3.40;;
34144;SDS011;69555;53.014;8.886;2024-02-16T02:57:21;5.10;;;2.75;;
34144;SDS011;69555;53.014;8.886;2024-02-16T02:59:46;5.68;;;2.85;;
34144;SDS011;69555;53.014;8.886;2024-02-16T03:02:12;6.78;;;3.03;;
34144;SDS011;69555;53.014;8.886;2024-02-16T03:04:37;3.63;;;2.47;;
34144;SDS011;69555;53.014;8.886;2024-02-16T03:07:03;7.07;;;3.25;;
34144;SDS011;69555;53.014;8.886;2024-02-16T03:09:28;5.75;;;2.70;;
34144;SDS011;69555;53.014;8.886;2024-02-16T03:11:53;8.07;;;2.97;;
34144;SDS011;69555;53.014;8.886;2024-02-16T03:14:19;9.25;;;2.63;;
34144;SDS011;69555;53.014;8.886;2024-02-16T03:16:44;9.02;;;3.10;;
34144;SDS011;69555;53.014;8.886;2024-02-16T03:19:10;6.97;;;2.55;;
34144;SDS011;69555;53.014;8.886;2024-02-16T03:21:35;7.28;;;3.03;;
34144;SDS011;69555;53.014;8.886;2024-02-16T03:24:04;6.20;;;2.75;;
34144;SDS011;69555;53.014;8.886;2024-02-16T03:26:30;4.03;;;2.53;;
34144;SDS011;69555;53.014;8.886;2024-02-16T03:28:57;6.85;;;2.65;;
34144;SDS011;69555;53.014;8.886;2024-02-16T03:31:23;8.82;;;2.75;;
34144;SDS011;69555;53.014;8.886;2024-02-16T03:33:50;7.50;;;2.88;;
34144;SDS011;69555;53.014;8.886;2024-02-16T03:36:16;6.43;;;2.40;;
34144;SDS011;69555;53.014;8.886;2024-02-16T03:38:42;4.93;;;2.47;;
34144;SDS011;69555;53.014;8.886;2024-02-16T03:41:17;6.63;;;2.70;;
34144;SDS011;69555;53.014;8.886;2024-02-16T03:43:43;5.07;;;2.53;;
34144;SDS011;69555;53.014;8.886;2024-02-16T03:46:09;3.75;;;2.28;;
34144;SDS011;69555;53.014;8.886;2024-02-16T03:48:34;6.00;;;2.53;;
34144;SDS011;69555;53.014;8.886;2024-02-16T03:51:00;4.97;;;2.60;;
34144;SDS011;69555;53.014;8.886;2024-02-16T03:53:27;11.75;;;3.28;;
34144;SDS011;69555;53.014;8.886;2024-02-16T03:55:53;7.55;;;2.50;;
34144;SDS011;69555;53.014;8.886;2024-02-16T03:58:18;7.45;;;3.60;;
34144;SDS011;69555;53.014;8.886;2024-02-16T04:00:44;12.65;;;2.92;;
34144;SDS011;69555;53.014;8.886;2024-02-16T04:03:09;7.57;;;2.63;;
34144;SDS011;69555;53.014;8.886;2024-02-16T04:05:35;4.43;;;2.70;;
34144;SDS011;69555;53.014;8.886;2024-02-16T04:08:03;7.38;;;3.03;;
34144;SDS011;69555;53.014;8.886;2024-02-16T04:10:29;7.75;;;2.47;;
34144;SDS011;69555;53.014;8.886;2024-02-16T04:12:55;7.40;;;2.60;;
34144;SDS011;69555;53.014;8.886;2024-02-16T04:15:20;6.35;;;3.03;;
34144;SDS011;69555;53.014;8.886;2024-02-16T04:17:47;7.93;;;2.65;;
34144;SDS011;69555;53.014;8.886;2024-02-16T04:20:15;6.43;;;2.45;;
34144;SDS011;69555;53.014;8.886;2024-02-16T04:22:41;4.03;;;2.33;;
34144;SDS011;69555;53.014;8.886;2024-02-16T04:25:08;13.35;;;3.33;;
34144;SDS011;69555;53.014;8.886;2024-02-16T04:27:35;11.50;;;2.92;;
34144;SDS011;69555;53.014;8.886;2024-02-16T04:30:02;11.15;;;4.45;;
34144;SDS011;69555;53.014;8.886;2024-02-16T04:32:30;7.80;;;3.03;;
34144;SDS011;69555;53.014;8.886;2024-02-16T04:34:57;5.75;;;2.50;;
34144;SDS011;69555;53.014;8.886;2024-02-16T04:37:25;7.63;;;2.70;;
34144;SDS011;69555;53.014;8.886;2024-02-16T04:39:52;9.48;;;3.30;;
34144;SDS011;69555;53.014;8.886;2024-02-16T04:42:19;4.50;;;2.17;;
34144;SDS011;69555;53.014;8.886;2024-02-16T04:44:45;7.93;;;2.63;;
34144;SDS011;69555;53.014;8.886;2024-02-16T04:47:12;8.50;;;2.40;;
34144;SDS011;69555;53.014;8.886;2024-02-16T04:49:40;3.53;;;2.20;;
34144;SDS011;69555;53.014;8.886;2024-02-16T04:52:06;5.20;;;2.42;;
34144;SDS011;69555;53.014;8.886;2024-02-16T04:54:35;5.97;;;2.35;;
34144;SDS011;69555;53.014;8.886;2024-02-16T04:57:02;5.55;;;2.42;;
34144;SDS011;69555;53.014;8.886;2024-02-16T04:59:28;8.20;;;3.20;;
34144;SDS011;69555;53.014;8.886;2024-02-16T05:01:53;8.57;;;2.35;;
34144;SDS011;69555;53.014;8.886;2024-02-16T05:04:20;6.63;;;2.83;;
34144;SDS011;69555;53.014;8.886;2024-02-16T05:06:46;6.68;;;2.00;;
34144;SDS011;69555;53.014;8.886;2024-02-16T05:09:12;5.05;;;2.90;;
34144;SDS011;69555;53.014;8.886;2024-02-16T05:11:43;8.55;;;2.45;;
34144;SDS011;69555;53.014;8.886;2024-02-16T05:14:10;5.68;;;2.78;;
34144;SDS011;69555;53.014;8.886;2024-02-16T05:16:43;6.55;;;2.40;;
34144;SDS011;69555;53.014;8.886;2024-02-16T05:19:10;8.18;;;2.65;;
34144;SDS011;69555;53.014;8.886;2024-02-16T05:21:37;6.22;;;2.33;;
34144;SDS011;69555;53.014;8.886;2024-02-16T05:24:04;5.35;;;2.28;;
34144;SDS011;69555;53.014;8.886;2024-02-16T05:26:31;5.82;;;1.88;;
34144;SDS011;69555;53.014;8.886;2024-02-16T05:28:57;11.80;;;3.10;;
34144;SDS011;69555;53.014;8.886;2024-02-16T05:31:23;8.27;;;2.70;;
34144;SDS011;69555;53.014;8.886;2024-02-16T05:33:50;3.45;;;2.03;;
34144;SDS011;69555;53.014;8.886;2024-02-16T05:36:18;4.50;;;2.78;;
34144;SDS011;69555;53.014;8.886;2024-02-16T05:38:47;3.65;;;2.15;;
34144;SDS011;69555;53.014;8.886;2024-02-16T05:41:15;4.30;;;2.38;;
34144;SDS011;69555;53.014;8.886;2024-02-16T05:43:42;6.03;;;2.63;;
34144;SDS011;69555;53.014;8.886;2024-02-16T05:46:13;5.28;;;2.25;;
34144;SDS011;69555;53.014;8.886;2024-02-16T05:48:40;9.63;;;2.60;;
34144;SDS011;69555;53.014;8.886;2024-02-16T05:51:06;7.15;;;2.33;;
34144;SDS011;69555;53.014;8.886;2024-02-16T05:53:32;5.75;;;2.50;;
34144;SDS011;69555;53.014;8.886;2024-02-16T05:55:58;4.40;;;2.35;;
34144;SDS011;69555;53.014;8.886;2024-02-16T05:58:24;8.32;;;2.38;;
34144;SDS011;69555;53.014;8.886;2024-02-16T06:00:50;6.18;;;3.28;;
34144;SDS011;69555;53.014;8.886;2024-02-16T06:03:16;10.05;;;2.72;;
34144;SDS011;69555;53.014;8.886;2024-02-16T06:05:41;6.72;;;2.58;;
34144;SDS011;69555;53.014;8.886;2024-02-16T06:08:09;7.13;;;2.70;;
34144;SDS011;69555;53.014;8.886;2024-02-16T06:10:35;5.82;;;2.70;;
34144;SDS011;69555;53.014;8.886;2024-02-16T06:13:00;2.72;;;1.92;;
34144;SDS011;69555;53.014;8.886;2024-02-16T06:15:26;6.97;;;2.35;;
34144;SDS011;69555;53.014;8.886;2024-02-16T06:17:51;4.03;;;2.15;;
34144;SDS011;69555;53.014;8.886;2024-02-16T06:20:17;9.07;;;2.20;;
34144;SDS011;69555;53.014;8.886;2024-02-16T06:22:43;6.18;;;2.88;;
34144;SDS011;69555;53.014;8.886;2024-02-16T06:25:09;4.32;;;3.08;;
34144;SDS011;69555;53.014;8.886;2024-02-16T06:27:34;4.70;;;2.67;;
34144;SDS011;69555;53.014;8.886;2024-02-16T06:30:00;5.25;;;2.22;;
34144;SDS011;69555;53.014;8.886;2024-02-16T06:32:26;4.55;;;2.35;;
34144;SDS011;69555;53.014;8.886;2024-02-16T06:34:53;6.50;;;2.50;;
34144;SDS011;69555;53.014;8.886;2024-02-16T06:37:18;3.72;;;2.47;;
34144;SDS011;69555;53.014;8.886;2024-02-16T06:39:44;11.50;;;2.35;;
34144;SDS011;69555;53.014;8.886;2024-02-16T06:42:10;6.10;;;2.35;;
34144;SDS011;69555;53.014;8.886;2024-02-16T06:44:37;3.90;;;2.38;;
34144;SDS011;69555;53.014;8.886;2024-02-16T06:47:06;3.83;;;2.67;;
34144;SDS011;69555;53.014;8.886;2024-02-16T06:49:33;5.55;;;2.28;;
34144;SDS011;69555;53.014;8.886;2024-02-16T06:51:59;4.72;;;2.42;;
34144;SDS011;69555;53.014;8.886;2024-02-16T06:54:26;11.30;;;2.72;;
34144;SDS011;69555;53.014;8.886;2024-02-16T06:56:51;7.30;;;2.67;;
34144;SDS011;69555;53.014;8.886;2024-02-16T06:59:17;6.63;;;3.03;;
34144;SDS011;69555;53.014;8.886;2024-02-16T07:01:45;7.30;;;2.22;;
34144;SDS011;69555;53.014;8.886;2024-02-16T07:04:10;8.00;;;2.70;;
34144;SDS011;69555;53.014;8.886;2024-02-16T07:06:36;4.90;;;2.40;;
34144;SDS011;69555;53.014;8.886;2024-02-16T07:09:01;6.38;;;2.95;;
34144;SDS011;69555;53.014;8.886;2024-02-16T07:11:27;6.78;;;2.55;;
34144;SDS011;69555;53.014;8.886;2024-02-16T07:13:53;9.80;;;2.88;;
34144;SDS011;69555;53.014;8.886;2024-02-16T07:16:20;7.38;;;3.20;;
34144;SDS011;69555;53.014;8.886;2024-02-16T07:18:48;6.50;;;2.45;;
34144;SDS011;69555;53.014;8.886;2024-02-16T07:21:16;7.35;;;2.67;;
34144;SDS011;69555;53.014;8.886;2024-02-16T07:23:46;7.97;;;2.92;;
34144;SDS011;69555;53.014;8.886;2024-02-16T07:26:12;5.40;;;2.78;;
34144;SDS011;69555;53.014;8.886;2024-02-16T07:28:39;4.65;;;2.47;;
34144;SDS011;69555;53.014;8.886;2024-02-16T07:31:06;3.60;;;2.20;;
34144;SDS011;69555;53.014;8.886;2024-02-16T07:33:34;5.13;;;2.88;;
34144;SDS011;69555;53.014;8.886;2024-02-16T07:36:00;10.45;;;2.90;;
34144;SDS011;69555;53.014;8.886;2024-02-16T07:38:27;8.25;;;2.63;;
34144;SDS011;69555;53.014;8.886;2024-02-16T07:40:54;5.85;;;2.35;;
34144;SDS011;69555;53.014;8.886;2024-02-16T07:43:22;9.52;;;2.45;;
34144;SDS011;69555;53.014;8.886;2024-02-16T07:45:50;4.78;;;2.25;;
34144;SDS011;69555;53.014;8.886;2024-02-16T07:48:18;8.68;;;3.80;;
34144;SDS011;69555;53.014;8.886;2024-02-16T07:50:47;10.20;;;2.75;;
34144;SDS011;69555;53.014;8.886;2024-02-16T07:53:16;9.57;;;2.85;;
34144;SDS011;69555;53.014;8.886;2024-02-16T07:55:43;7.57;;;2.63;;
34144;SDS011;69555;53.014;8.886;2024-02-16T07:58:10;9.90;;;3.40;;
34144;SDS011;69555;53.014;8.886;2024-02-16T08:00:38;12.48;;;3.25;;
34144;SDS011;69555;53.014;8.886;2024-02-16T08:03:04;6.38;;;2.75;;
34144;SDS011;69555;53.014;8.886;2024-02-16T08:05:31;9.60;;;2.35;;
34144;SDS011;69555;53.014;8.886;2024-02-16T08:07:56;8.35;;;2.65;;
34144;SDS011;69555;53.014;8.886;2024-02-16T08:10:23;5.93;;;2.20;;
34144;SDS011;69555;53.014;8.886;2024-02-16T08:12:51;5.78;;;2.40;;
34144;SDS011;69555;53.014;8.886;2024-02-16T08:15:19;7.22;;;2.55;;
34144;SDS011;69555;53.014;8.886;2024-02-16T08:17:49;10.90;;;3.00;;
34144;SDS011;69555;53.014;8.886;2024-02-16T08:20:15;9.10;;;2.17;;
34144;SDS011;69555;53.014;8.886;2024-02-16T08:22:42;8.43;;;2.47;;
34144;SDS011;69555;53.014;8.886;2024-02-16T08:25:09;5.20;;;2.70;;
34144;SDS011;69555;53.014;8.886;2024-02-16T08:27:36;4.38;;;2.30;;
34144;SDS011;69555;53.014;8.886;2024-02-16T08:30:05;6.35;;;2.33;;
34144;SDS011;69555;53.014;8.886;2024-02-16T08:32:32;4.40;;;2.05;;
34144;SDS011;69555;53.014;8.886;2024-02-16T08:34:59;5.38;;;1.98;;
34144;SDS011;69555;53.014;8.886;2024-02-16T08:37:25;4.93;;;2.00;;
34144;SDS011;69555;53.014;8.886;2024-02-16T08:39:52;4.40;;;2.65;;
34144;SDS011;69555;53.014;8.886;2024-02-16T08:42:20;8.65;;;2.13;;
34144;SDS011;69555;53.014;8.886;2024-02-16T08:44:48;4.15;;;1.77;;
34144;SDS011;69555;53.014;8.886;2024-02-16T08:47:15;3.85;;;2.25;;
34144;SDS011;69555;53.014;8.886;2024-02-16T08:49:41;4.03;;;2.30;;
34144;SDS011;69555;53.014;8.886;2024-02-16T08:52:07;3.38;;;2.30;;
34144;SDS011;69555;53.014;8.886;2024-02-16T08:54:33;8.02;;;2.25;;
34144;SDS011;69555;53.014;8.886;2024-02-16T08:56:59;4.63;;;2.28;;
34144;SDS011;69555;53.014;8.886;2024-02-16T08:59:24;4.85;;;2.63;;
34144;SDS011;69555;53.014;8.886;2024-02-16T09:01:50;4.22;;;2.20;;
34144;SDS011;69555;53.014;8.886;2024-02-16T09:04:15;5.53;;;2.55;;
34144;SDS011;69555;53.014;8.886;2024-02-16T09:06:41;7.47;;;2.60;;
34144;SDS011;69555;53.014;8.886;2024-02-16T09:09:06;8.30;;;2.35;;
34144;SDS011;69555;53.014;8.886;2024-02-16T09:11:32;5.22;;;2.47;;
34144;SDS011;69555;53.014;8.886;2024-02-16T09:13:58;6.82;;;2.80;;
34144;SDS011;69555;53.014;8.886;2024-02-16T09:16:24;4.93;;;2.20;;
34144;SDS011;69555;53.014;8.886;2024-02-16T09:18:49;6.82;;;1.70;;
34144;SDS011;69555;53.014;8.886;2024-02-16T09:21:15;6.85;;;3.00;;
34144;SDS011;69555;53.014;8.886;2024-02-16T09:23:40;5.20;;;2.15;;
34144;SDS011;69555;53.014;8.886;2024-02-16T09:26:06;7.90;;;2.78;;
34144;SDS011;69555;53.014;8.886;2024-02-16T09:28:38;6.47;;;2.60;;
34144;SDS011;69555;53.014;8.886;2024-02-16T09:31:06;5.90;;;2.47;;
34144;SDS011;69555;53.014;8.886;2024-02-16T09:33:34;6.97;;;2.63;;
34144;SDS011;69555;53.014;8.886;2024-02-16T09:38:30;3.17;;;1.70;;
34144;SDS011;69555;53.014;8.886;2024-02-16T09:40:55;4.03;;;2.47;;
34144;SDS011;69555;53.014;8.886;2024-02-16T09:43:24;4.50;;;1.85;;
34144;SDS011;69555;53.014;8.886;2024-02-16T09:45:55;4.30;;;1.95;;
34144;SDS011;69555;53.014;8.886;2024-02-16T09:48:21;5.20;;;1.73;;
34144;SDS011;69555;53.014;8.886;2024-02-16T09:50:48;8.00;;;1.45;;
34144;SDS011;69555;53.014;8.886;2024-02-16T09:53:15;5.22;;;1.98;;
34144;SDS011;69555;53.014;8.886;2024-02-16T09:55:41;2.95;;;2.17;;
34144;SDS011;69555;53.014;8.886;2024-02-16T09:58:08;10.73;;;2.00;;
34144;SDS011;69555;53.014;8.886;2024-02-16T10:00:33;8.68;;;2.00;;
34144;SDS011;69555;53.014;8.886;2024-02-16T10:02:58;3.22;;;1.95;;
34144;SDS011;69555;53.014;8.886;2024-02-16T10:05:24;7.13;;;2.22;;
34144;SDS011;69555;53.014;8.886;2024-02-16T10:07:51;8.00;;;2.03;;
34144;SDS011;69555;53.014;8.886;2024-02-16T10:10:24;4.22;;;2.03;;
34144;SDS011;69555;53.014;8.886;2024-02-16T10:13:06;5.45;;;2.20;;
34144;SDS011;69555;53.014;8.886;2024-02-16T10:15:34;5.47;;;2.00;;
34144;SDS011;69555;53.014;8.886;2024-02-16T10:18:02;5.07;;;2.00;;
34144;SDS011;69555;53.014;8.886;2024-02-16T10:20:34;10.90;;;2.60;;
34144;SDS011;69555;53.014;8.886;2024-02-16T10:23:07;6.05;;;1.88;;
34144;SDS011;69555;53.014;8.886;2024-02-16T10:25:34;5.30;;;1.95;;
34144;SDS011;69555;53.014;8.886;2024-02-16T10:28:02;6.85;;;2.30;;
34144;SDS011;69555;53.014;8.886;2024-02-16T10:30:31;8.93;;;2.30;;
34144;SDS011;69555;53.014;8.886;2024-02-16T10:35:29;5.75;;;2.22;;
34144;SDS011;69555;53.014;8.886;2024-02-16T10:37:56;4.90;;;2.15;;
34144;SDS011;69555;53.014;8.886;2024-02-16T10:40:23;6.40;;;2.38;;
34144;SDS011;69555;53.014;8.886;2024-02-16T10:42:49;5.10;;;2.75;;
34144;SDS011;69555;53.014;8.886;2024-02-16T10:45:16;6.80;;;2.92;;
34144;SDS011;69555;53.014;8.886;2024-02-16T10:47:42;6.93;;;2.45;;
34144;SDS011;69555;53.014;8.886;2024-02-16T10:50:07;6.65;;;2.13;;
34144;SDS011;69555;53.014;8.886;2024-02-16T10:52:34;4.55;;;2.28;;
34144;SDS011;69555;53.014;8.886;2024-02-16T10:55:04;7.82;;;2.78;;
34144;SDS011;69555;53.014;8.886;2024-02-16T10:57:30;4.35;;;2.85;;
34144;SDS011;69555;53.014;8.886;2024-02-16T10:59:58;7.25;;;2.58;;
34144;SDS011;69555;53.014;8.886;2024-02-16T11:02:24;7.28;;;2.53;;
34144;SDS011;69555;53.014;8.886;2024-02-16T11:04:51;4.78;;;2.35;;
34144;SDS011;69555;53.014;8.886;2024-02-16T11:07:18;5.30;;;2.78;;
34144;SDS011;69555;53.014;8.886;2024-02-16T11:09:45;7.40;;;2.30;;
34144;SDS011;69555;53.014;8.886;2024-02-16T11:12:12;5.75;;;2.47;;
34144;SDS011;69555;53.014;8.886;2024-02-16T11:17:19;13.57;;;4.85;;
34144;SDS011;69555;53.014;8.886;2024-02-16T11:19:47;4.07;;;2.53;;
34144;SDS011;69555;53.014;8.886;2024-02-16T11:22:19;5.03;;;2.90;;
34144;SDS011;69555;53.014;8.886;2024-02-16T11:24:46;5.63;;;2.75;;
34144;SDS011;69555;53.014;8.886;2024-02-16T11:27:12;4.72;;;2.95;;
34144;SDS011;69555;53.014;8.886;2024-02-16T11:29:40;10.10;;;3.55;;
34144;SDS011;69555;53.014;8.886;2024-02-16T11:32:06;13.23;;;3.78;;
34144;SDS011;69555;53.014;8.886;2024-02-16T11:34:32;8.02;;;3.45;;
34144;SDS011;69555;53.014;8.886;2024-02-16T11:36:59;7.82;;;3.53;;
34144;SDS011;69555;53.014;8.886;2024-02-16T11:39:25;9.68;;;3.47;;
34144;SDS011;69555;53.014;8.886;2024-02-16T11:44:28;7.55;;;3.67;;
34144;SDS011;69555;53.014;8.886;2024-02-16T11:46:54;8.15;;;3.15;;
34144;SDS011;69555;53.014;8.886;2024-02-16T11:49:20;7.13;;;3.25;;
34144;SDS011;69555;53.014;8.886;2024-02-16T11:51:46;9.95;;;3.90;;
34144;SDS011;69555;53.014;8.886;2024-02-16T11:54:12;5.43;;;4.15;;
34144;SDS011;69555;53.014;8.886;2024-02-16T11:56:38;8.23;;;3.25;;
34144;SDS011;69555;53.014;8.886;2024-02-16T11:59:05;8.40;;;3.58;;
34144;SDS011;69555;53.014;8.886;2024-02-16T12:01:31;8.40;;;4.05;;
34144;SDS011;69555;53.014;8.886;2024-02-16T12:03:58;8.00;;;3.78;;
34144;SDS011;69555;53.014;8.886;2024-02-16T12:06:23;7.05;;;3.80;;
34144;SDS011;69555;53.014;8.886;2024-02-16T12:08:49;11.10;;;4.07;;
34144;SDS011;69555;53.014;8.886;2024-02-16T12:11:17;7.75;;;3.90;;
34144;SDS011;69555;53.014;8.886;2024-02-16T12:13:44;10.02;;;3.45;;
34144;SDS011;69555;53.014;8.886;2024-02-16T12:16:11;9.30;;;3.47;;
34144;SDS011;69555;53.014;8.886;2024-02-16T12:18:36;8.38;;;4.00;;
34144;SDS011;69555;53.014;8.886;2024-02-16T12:21:02;6.43;;;3.22;;
34144;SDS011;69555;53.014;8.886;2024-02-16T12:23:30;8.00;;;3.75;;
34144;SDS011;69555;53.014;8.886;2024-02-16T12:25:56;11.00;;;3.78;;
34144;SDS011;69555;53.014;8.886;2024-02-16T12:28:26;10.80;;;3.75;;
34144;SDS011;69555;53.014;8.886;2024-02-16T12:30:53;7.72;;;3.92;;
34144;SDS011;69555;53.014;8.886;2024-02-16T12:33:19;8.30;;;4.05;;
34144;SDS011;69555;53.014;8.886;2024-02-16T12:35:45;10.68;;;4.32;;
34144;SDS011;69555;53.014;8.886;2024-02-16T12:38:11;6.72;;;4.65;;
34144;SDS011;69555;53.014;8.886;2024-02-16T12:40:36;11.32;;;3.90;;
34144;SDS011;69555;53.014;8.886;2024-02-16T12:43:02;7.65;;;4.35;;
34144;SDS011;69555;53.014;8.886;2024-02-16T12:45:27;8.27;;;4.25;;
34144;SDS011;69555;53.014;8.886;2024-02-16T12:47:52;10.13;;;5.05;;
34144;SDS011;69555;53.014;8.886;2024-02-16T12:50:20;9.75;;;3.97;;
34144;SDS011;69555;53.014;8.886;2024-02-16T12:52:45;13.23;;;4.03;;
34144;SDS011;69555;53.014;8.886;2024-02-16T12:55:11;11.20;;;4.30;;
34144;SDS011;69555;53.014;8.886;2024-02-16T12:57:36;10.60;;;4.25;;
34144;SDS011;69555;53.014;8.886;2024-02-16T13:00:03;7.75;;;3.67;;
34144;SDS011;69555;53.014;8.886;2024-02-16T13:02:29;8.95;;;4.00;;
34144;SDS011;69555;53.014;8.886;2024-02-16T13:04:55;11.13;;;3.72;;
34144;SDS011;69555;53.014;8.886;2024-02-16T13:07:20;9.40;;;4.35;;
34144;SDS011;69555;53.014;8.886;2024-02-16T13:09:46;10.30;;;4.32;;
34144;SDS011;69555;53.014;8.886;2024-02-16T13:12:11;7.00;;;4.60;;
34144;SDS011;69555;53.014;8.886;2024-02-16T13:14:36;9.85;;;4.55;;
34144;SDS011;69555;53.014;8.886;2024-02-16T13:17:03;11.90;;;4.60;;
34144;SDS011;69555;53.014;8.886;2024-02-16T13:19:29;15.07;;;4.80;;
34144;SDS011;69555;53.014;8.886;2024-02-16T13:21:54;11.13;;;4.78;;
34144;SDS011;69555;53.014;8.886;2024-02-16T13:24:19;6.13;;;3.92;;
34144;SDS011;69555;53.014;8.886;2024-02-16T13:26:45;9.52;;;4.63;;
34144;SDS011;69555;53.014;8.886;2024-02-16T13:29:10;11.82;;;4.88;;
34144;SDS011;69555;53.014;8.886;2024-02-16T13:31:36;8.40;;;4.32;;
34144;SDS011;69555;53.014;8.886;2024-02-16T13:34:01;13.25;;;4.68;;
34144;SDS011;69555;53.014;8.886;2024-02-16T13:36:27;10.77;;;4.78;;
34144;SDS011;69555;53.014;8.886;2024-02-16T13:38:52;7.68;;;4.82;;
34144;SDS011;69555;53.014;8.886;2024-02-16T13:41:18;7.38;;;4.95;;
34144;SDS011;69555;53.014;8.886;2024-02-16T13:43:43;13.43;;;6.28;;
34144;SDS011;69555;53.014;8.886;2024-02-16T13:46:09;12.80;;;5.75;;
34144;SDS011;69555;53.014;8.886;2024-02-16T13:48:35;9.30;;;5.82;;
34144;SDS011;69555;53.014;8.886;2024-02-16T13:51:02;7.63;;;4.72;;
34144;SDS011;69555;53.014;8.886;2024-02-16T13:53:28;13.23;;;6.00;;
34144;SDS011;69555;53.014;8.886;2024-02-16T13:55:53;10.30;;;5.63;;
34144;SDS011;69555;53.014;8.886;2024-02-16T13:58:20;10.15;;;5.32;;
34144;SDS011;69555;53.014;8.886;2024-02-16T14:00:46;10.95;;;6.00;;
34144;SDS011;69555;53.014;8.886;2024-02-16T14:03:11;12.05;;;5.97;;
34144;SDS011;69555;53.014;8.886;2024-02-16T14:05:39;21.02;;;6.93;;
34144;SDS011;69555;53.014;8.886;2024-02-16T14:08:06;10.52;;;5.88;;
34144;SDS011;69555;53.014;8.886;2024-02-16T14:10:34;9.57;;;5.70;;
34144;SDS011;69555;53.014;8.886;2024-02-16T14:12:59;11.02;;;6.30;;
34144;SDS011;69555;53.014;8.886;2024-02-16T14:15:25;19.13;;;6.82;;
34144;SDS011;69555;53.014;8.886;2024-02-16T14:17:51;9.98;;;6.63;;
34144;SDS011;69555;53.014;8.886;2024-02-16T14:20:16;15.93;;;6.38;;
34144;SDS011;69555;53.014;8.886;2024-02-16T14:22:41;13.43;;;6.18;;
34144;SDS011;69555;53.014;8.886;2024-02-16T14:25:07;14.65;;;7.20;;
34144;SDS011;69555;53.014;8.886;2024-02-16T14:27:35;14.63;;;7.45;;
34144;SDS011;69555;53.014;8.886;2024-02-16T14:30:02;17.67;;;7.25;;
34144;SDS011;69555;53.014;8.886;2024-02-16T14:32:27;13.48;;;7.90;;
34144;SDS011;69555;53.014;8.886;2024-02-16T14:34:53;13.85;;;8.10;;
34144;SDS011;69555;53.014;8.886;2024-02-16T14:37:18;12.63;;;8.07;;
34144;SDS011;69555;53.014;8.886;2024-02-16T14:39:44;16.73;;;8.73;;
34144;SDS011;69555;53.014;8.886;2024-02-16T14:42:09;11.70;;;8.00;;
34144;SDS011;69555;53.014;8.886;2024-02-16T14:44:34;17.75;;;9.52;;
34144;SDS011;69555;53.014;8.886;2024-02-16T14:47:00;15.88;;;8.50;;
34144;SDS011;69555;53.014;8.886;2024-02-16T14:49:25;15.50;;;8.57;;